Hawaii
Oahu
Maui
Big Island
Molokai
Kauai

ALL OF HAWAII WEATHER

Latest Infrared (IR) Satellite Image

North Pacific Surface Analysis Loop

NOAA/NWS Satellite Loops – State of Hawaii (IR)

NOAA/NWS Satellite Loops – State of Hawaii (Visible)

Latest Satellite Loop (Enhanced IR)


Latest Radar Loop (NEXRAD)


Current Jet Stream Analysis

Storm Tracker

Hawaii Lo-Level Sig Progs – 0 Hr

Hawaii Lo-Level Sig Progs – 12 Hr

Global Storm Tracker & Sea Surface Temps

OAHU WEATHER

Weather Station (Near Diamond Head)

May 25, 2019, 6:16 pm
29.0
°C
33.5
°C
24.8
°C
30.03
inHg
64
%
4.0
kt
5.0
kt
max
0.00
in/h
0.01
in
today
3000
ft
21.5
°C
Available data for PHNL from the past 2 hours
HONOLULU, HI
Metar
PHNL 260353Z 04014G20KT 10SM FEW026 SCT120 BKN160 29/18 A3003 RMK AO2 SLP167 T02890183 $

03:53 UTC

Wind: 40° 14kt

Visibility: 10 SM

Sky: FEW 2600 ft

Temp: 29 deg C / 84.2 deg F

Dewpoint: 18 deg C / 64.4 deg F

Pressure: 30.03 inHg

TAF
PHNL 260302Z 2603/2706 06013G19KT P6SM FEW035 SCT050 BKN200 FM260500 05006KT P6SM FEW025 SCT045 BKN200 FM262000 06013G22KT P6SM FEW030 SCT050 SCT200 FM270500 05007KT P6SM FEW025 SCT045
Available data for PHJR from the past 2 hours
KALAELOA, HI
Metar
PHJR 260353Z 06007KT 10SM BKN048 28/18 A3004 RMK AO2 SLP178 T02830183

03:53 UTC

Wind: 60° 7kt

Visibility: 10 SM

Sky: BKN 4800 ft

Temp: 28 deg C / 82.4 deg F

Dewpoint: 18 deg C / 64.4 deg F

Pressure: 30.04 inHg

TAF
PHJR 252325Z 2600/2624 12009KT P6SM SCT035 BKN050 FM260500 VRB04KT P6SM FEW040 SCT200 FM262000 12008G15KT P6SM SCT040 BKN060
Available data for PHNG from the past 2 hours
KANEOHE MCAS, HI
Metar
PHNG 260357Z 07008KT 10SM FEW023 27/21 A3003 RMK AO2 SLP164 T02720211 $

03:57 UTC

Wind: 70° 8kt

Visibility: 10 SM

Sky: FEW 2300 ft

Temp: 27 deg C / 80.6 deg F

Dewpoint: 21 deg C / 69.8 deg F

Pressure: 30.03 inHg

TAF
TAF PHNG 2603/2703 05010KT 9999 FEW030 BKN050 QNH3000INS TEMPO 2603/2609 08010G20KT 8000 -SHRA BKN030 OVC050 T26/2613Z T30/2623Z
Available data for PHHI from the past 2 hours
WHEELER AFB/OAHU, HI
Metar
PHHI 260356Z AUTO 08004KT 10SM CLR 25/19 A3005 RMK AO2 SLP168 T02510194 $

03:56 UTC

Wind: 80° 4kt

Visibility: 10 SM

Sky:

Temp: 25 deg C / 77 deg F

Dewpoint: 19 deg C / 66.2 deg F

Pressure: 30.05 inHg

NOAA/NWS Satellite Loop – Oahu (Visible)

MAUI WEATHER

NOAA/NWS Satellite Loop – Maui (Visible)

Latest radar loops (NEXRAD) – Maui

Kamuela NEXRAD

Available data for PHOG from the past 2 hours
KAHULUI, HI
Metar
PHOG 260354Z 04016G22KT 10SM FEW050 28/18 A3001 RMK AO2 SLP168 T02830183 $

03:54 UTC

Wind: 40° 16kt

Visibility: 10 SM

Sky: FEW 5000 ft

Temp: 28 deg C / 82.4 deg F

Dewpoint: 18 deg C / 64.4 deg F

Pressure: 30.01 inHg

TAF
PHOG 252325Z 2600/2624 05018G25KT P6SM FEW035 SCT060 FM260500 05011G17KT P6SM FEW050 FM261900 05016G24KT P6SM FEW030 SCT050 AMD LTD TO VIS AND WIND 2609/2616
Available data for PHJH from the past 2 hours
LAHAINA/WEST MAU, HI
Metar
PHJH 260345Z 05014KT 10SM FEW030 SCT050 28/18 A3003 RMK LAST

03:45 UTC

Wind: 50° 14kt

Visibility: 10 SM

Sky: FEW 3000 ft

Temp: 28 deg C / 82.4 deg F

Dewpoint: 18 deg C / 64.4 deg F

Pressure: 30.03 inHg

TAF
PHJH 252325Z 2600/2624 06015G25KT P6SM FEW030 SCT050 FM260600 04010KT P6SM FEW025 SCT045 FM261900 06015G24KT P6SM FEW030 SCT050 AMD NOT SKED AFT 260400

BIG ISLAND WEATHER

Latest Radar Loop (NEXRAD) – Big Island

NOAA/NWS Satellite Loop – Big Island (Visible)

Available data for PHKO from the past 2 hours
KAILUA/KONA, HI
Metar
PHKO 260353Z 24008KT 10SM SCT040 BKN060 27/22 A3000 RMK AO2 SLP157 T02720217

03:53 UTC

Wind: 240° 8kt

Visibility: 10 SM

Sky: SCT 4000 ft

Temp: 27 deg C / 80.6 deg F

Dewpoint: 22 deg C / 71.6 deg F

Pressure: 30 inHg

TAF
PHKO 252325Z 2600/2624 19011KT P6SM SCT060 TEMPO 2600/2604 BKN060 FM260500 10005KT P6SM FEW060 FM261900 21010KT P6SM SCT060
Available data for PHTO from the past 2 hours
HILO, HI
Metar
PHTO 260353Z 07009KT 10SM FEW024 SCT029 BKN041 26/19 A3005 RMK AO2 SLP175 T02560189

03:53 UTC

Wind: 70° 9kt

Visibility: 10 SM

Sky: FEW 2400 ft

Temp: 26 deg C / 78.8 deg F

Dewpoint: 19 deg C / 66.2 deg F

Pressure: 30.05 inHg

TAF
PHTO 252325Z 2600/2624 08010KT P6SM VCSH SCT025 BKN050 FM260500 24005KT P6SM VCSH SCT025 BKN040 FM262100 09010KT P6SM VCSH SCT025 BKN050

MOLOKAI WEATHER

Latest Radar Loop (NEXRAD) – Molokai (HMO)

Molokai NEXRAD

Available data for PHMK from the past 2 hours
MOLOKAI, HI
Metar
PHMK 260354Z 04011G18KT 10SM CLR 27/20 A3004 RMK AO2 SLP175 T02670200

03:54 UTC

Wind: 40° 11kt

Visibility: 10 SM

Sky:

Temp: 27 deg C / 80.6 deg F

Dewpoint: 20 deg C / 68 deg F

Pressure: 30.04 inHg

TAF
PHMK 252325Z 2600/2624 05012G20KT P6SM SCT040 SCT200 FM260500 03008G15KT P6SM FEW040 SCT200 FM262000 04012G20KT P6SM SCT040

KAUAI WEATHER

NOAA/NWS Satellite Loop – Kauai (Visible)

Latest radar loops (NEXRAD) – South Kauai (HKI)

Kauai NEXRAD

Available data for PHLI from the past 2 hours
LIHUE/KAUAI IS, HI
Metar
PHLI 260353Z 07009KT 10SM FEW022 OVC060 26/21 A3007 RMK AO2 SLP179 T02560206

03:53 UTC

Wind: 70° 9kt

Visibility: 10 SM

Sky: FEW 2200 ft

Temp: 26 deg C / 78.8 deg F

Dewpoint: 21 deg C / 69.8 deg F

Pressure: 30.07 inHg

TAF
PHLI 252325Z 2600/2624 07010KT P6SM VCSH SCT015 BKN040
Available data for PHBK from the past 2 hours
BARKING SANDS/KA, HI
Metar
PHBK 260356Z AUTO 26004KT 10SM BKN050 OVC070 28/22 A3003 RMK AO2 SLP170 T02780222

03:56 UTC

Wind: 260° 4kt

Visibility: 10 SM

Sky: BKN 5000 ft

Temp: 28 deg C / 82.4 deg F

Dewpoint: 22 deg C / 71.6 deg F

Pressure: 30.03 inHg

DISCLAIMER: We do not endorse any specific product or service.  Always verify information provided. Refer to latest FAA publications, charts & recommendations.